Time;durP1;ratioP1;P1;durP2;ratioP2;P2;SDS_P1;SDS_P2;PMS_P1;PMS_P2;Temp;Humidity;BMP_temperature;BMP_pressure;BME280_temperature;BME280_humidity;BME280_pressure;Samples;Min_cycle;Max_cycle;Signal;HPM_P1;HPM_P2
2024/01/22 00:00:13;;;;;;;6.18;3.65;;;2.00;70.80;;;;;;5046222;28;20203;-81
2024/01/22 00:03:03;;;;;;;12.55;5.07;;;2.00;70.70;;;;;;5047969;28;20044;-77
2024/01/22 00:05:51;;;;;;;7.38;4.32;;;2.10;67.40;;;;;;5053724;28;20063;-78
2024/01/22 00:08:40;;;;;;;7.60;4.55;;;2.10;68.50;;;;;;5042317;28;20482;-78
2024/01/22 00:11:29;;;;;;;9.48;4.22;;;2.10;69.00;;;;;;5041521;28;20072;-78
2024/01/22 00:14:18;;;;;;;9.10;3.97;;;2.10;70.40;;;;;;5045494;28;20575;-80
2024/01/22 00:17:07;;;;;;;8.02;4.57;;;2.00;72.60;;;;;;5046709;28;20410;-79
2024/01/22 00:19:55;;;;;;;7.03;3.85;;;1.90;73.10;;;;;;5043447;28;20057;-80
2024/01/22 00:22:44;;;;;;;6.20;3.92;;;1.90;77.50;;;;;;5047932;28;20044;-80
2024/01/22 00:25:31;;;;;;;9.52;4.70;;;1.90;78.00;;;;;;5047051;28;20076;-77
2024/01/22 00:28:24;;;;;;;7.13;4.45;;;1.80;79.60;;;;;;5044294;28;20675;-79
2024/01/22 00:31:15;;;;;;;8.98;4.75;;;1.70;78.40;;;;;;5056971;28;20034;-78
2024/01/22 00:34:04;;;;;;;6.40;4.00;;;1.70;82.30;;;;;;5052118;28;20136;-77
2024/01/22 00:36:55;;;;;;;11.05;4.75;;;1.60;84.90;;;;;;5061672;28;20033;-79
2024/01/22 00:39:42;;;;;;;8.93;4.53;;;1.50;88.00;;;;;;5046076;28;20498;-78
2024/01/22 00:42:31;;;;;;;8.18;4.38;;;1.50;90.30;;;;;;5055389;28;20041;-78
2024/01/22 00:45:22;;;;;;;6.75;4.18;;;1.70;92.00;;;;;;5035977;28;20041;-80
2024/01/22 00:48:09;;;;;;;7.70;4.00;;;1.90;91.40;;;;;;5037115;28;20128;-78
2024/01/22 00:50:57;;;;;;;8.02;4.00;;;2.10;91.30;;;;;;5035351;28;20453;-80
2024/01/22 00:53:44;;;;;;;7.53;3.92;;;2.10;91.10;;;;;;5039465;28;20125;-78
2024/01/22 00:56:33;;;;;;;4.13;3.20;;;2.10;91.40;;;;;;5025327;28;20134;-79
2024/01/22 00:59:23;;;;;;;7.60;3.50;;;2.20;91.20;;;;;;5024674;28;20057;-81
2024/01/22 01:02:12;;;;;;;6.05;3.92;;;2.20;92.00;;;;;;5034556;28;20045;-81
2024/01/22 01:05:00;;;;;;;6.40;3.60;;;2.20;93.30;;;;;;5041374;28;20110;-81
2024/01/22 01:07:47;;;;;;;8.80;4.35;;;2.10;94.90;;;;;;5040956;28;20045;-81
2024/01/22 01:10:45;;;;;;;7.10;4.43;;;1.90;96.60;;;;;;5034081;28;20539;-80
2024/01/22 01:13:33;;;;;;;7.65;4.05;;;1.80;99.50;;;;;;5015824;28;20046;-79
2024/01/22 01:16:20;;;;;;;9.55;4.40;;;1.70;99.90;;;;;;5038855;28;20119;-79
2024/01/22 01:19:08;;;;;;;6.90;3.85;;;1.70;99.90;;;;;;5042916;28;20049;-80
2024/01/22 01:21:55;;;;;;;6.43;4.38;;;1.70;99.90;;;;;;5041194;28;20037;-79
2024/01/22 01:24:43;;;;;;;8.98;5.47;;;1.70;99.90;;;;;;5035864;28;20048;-80
2024/01/22 01:27:31;;;;;;;6.95;4.10;;;1.60;99.90;;;;;;5048433;28;20104;-78
2024/01/22 01:30:19;;;;;;;7.60;4.30;;;1.50;99.90;;;;;;5046264;28;20117;-79
2024/01/22 01:33:07;;;;;;;5.55;4.20;;;1.50;99.90;;;;;;5048367;28;20048;-80
2024/01/22 01:35:55;;;;;;;7.68;4.35;;;1.40;99.90;;;;;;5034369;28;20049;-81
2024/01/22 01:38:51;;;;;;;7.20;4.55;;;1.30;99.90;;;;;;5039455;28;20051;-79
2024/01/22 01:41:40;;;;;;;9.55;5.05;;;1.30;99.90;;;;;;5038252;28;20557;-77
2024/01/22 01:44:47;;;;;;;10.93;4.35;;;1.40;99.90;;;;;;5034594;28;20106;-78
2024/01/22 01:47:35;;;;;;;9.05;5.10;;;1.40;99.90;;;;;;5033981;28;20041;-77
2024/01/22 01:50:27;;;;;;;6.32;4.25;;;1.60;99.90;;;;;;5034067;28;20417;-79
2024/01/22 01:53:15;;;;;;;6.75;4.40;;;1.60;99.90;;;;;;5037070;28;20505;-78
2024/01/22 01:56:03;;;;;;;8.65;4.40;;;1.60;99.90;;;;;;5035971;28;20521;-79
2024/01/22 01:58:51;;;;;;;5.93;4.28;;;1.60;99.90;;;;;;5038927;28;20533;-76
2024/01/22 02:01:40;;;;;;;6.45;4.18;;;1.40;99.90;;;;;;5038064;28;20045;-78
2024/01/22 02:04:30;;;;;;;5.50;3.95;;;1.30;99.90;;;;;;5035625;28;20049;-78
2024/01/22 02:07:20;;;;;;;7.68;3.47;;;1.10;99.90;;;;;;5033206;28;20055;-79
2024/01/22 02:10:15;;;;;;;4.05;3.30;;;1.10;99.90;;;;;;5042066;28;20049;-78
2024/01/22 02:13:06;;;;;;;6.38;3.88;;;1.40;99.90;;;;;;5044560;28;20053;-78
2024/01/22 02:16:01;;;;;;;4.03;3.20;;;1.70;99.90;;;;;;5041812;28;20041;-78
2024/01/22 02:18:50;;;;;;;4.07;3.40;;;2.00;99.90;;;;;;5048968;28;20553;-79
2024/01/22 02:21:40;;;;;;;6.47;3.47;;;2.20;99.90;;;;;;5050633;28;20040;-78
2024/01/22 02:24:30;;;;;;;8.68;3.45;;;2.40;99.90;;;;;;5070379;28;20037;-79
2024/01/22 02:27:18;;;;;;;7.28;3.40;;;2.50;99.90;;;;;;5069472;28;20068;-77
2024/01/22 02:30:07;;;;;;;7.57;3.47;;;2.70;99.90;;;;;;5053181;28;20102;-80
2024/01/22 02:32:56;;;;;;;6.78;3.50;;;2.70;99.90;;;;;;5035796;28;20166;-79
2024/01/22 02:35:44;;;;;;;6.50;3.88;;;2.80;99.90;;;;;;5043847;28;20045;-77
2024/01/22 02:38:33;;;;;;;6.63;3.35;;;2.90;99.90;;;;;;5044957;28;20056;-80
2024/01/22 02:41:22;;;;;;;5.13;3.08;;;3.00;99.90;;;;;;5045126;28;20107;-79
2024/01/22 02:44:10;;;;;;;6.47;3.33;;;3.10;99.90;;;;;;5046094;28;20565;-79
2024/01/22 02:47:00;;;;;;;6.15;3.58;;;3.20;99.90;;;;;;5047223;28;20792;-80
2024/01/22 02:49:53;;;;;;;6.47;4.15;;;3.30;99.90;;;;;;5044553;28;20044;-77
2024/01/22 02:52:41;;;;;;;7.57;3.67;;;3.20;99.90;;;;;;5048601;28;20036;-78
2024/01/22 02:55:30;;;;;;;5.68;3.50;;;3.20;99.90;;;;;;5048030;28;20052;-81
2024/01/22 02:58:19;;;;;;;4.35;3.15;;;3.40;99.90;;;;;;5043593;28;20517;-78
2024/01/22 03:01:06;;;;;;;5.70;3.55;;;3.40;99.90;;;;;;5042097;28;20056;-79
2024/01/22 03:03:55;;;;;;;5.70;3.15;;;3.40;99.90;;;;;;5056992;28;20060;-79
2024/01/22 03:06:45;;;;;;;6.95;3.20;;;3.40;99.90;;;;;;5053645;28;20037;-79
2024/01/22 03:09:33;;;;;;;5.68;3.60;;;3.40;99.90;;;;;;5036430;28;20043;-79
2024/01/22 03:12:21;;;;;;;7.65;3.83;;;3.30;99.90;;;;;;5049270;28;20059;-79
2024/01/22 03:15:16;;;;;;;8.85;4.55;;;3.30;99.90;;;;;;5045386;28;20041;-80
2024/01/22 03:18:05;;;;;;;7.45;3.80;;;3.20;99.90;;;;;;5045965;28;20068;-80
2024/01/22 03:20:54;;;;;;;7.25;4.25;;;3.10;99.90;;;;;;5046375;28;20061;-79
2024/01/22 03:23:44;;;;;;;8.75;3.83;;;3.10;99.90;;;;;;5040196;28;20049;-80
2024/01/22 03:26:32;;;;;;;6.85;3.92;;;3.10;99.90;;;;;;5033739;28;20045;-80
2024/01/22 03:29:23;;;;;;;5.68;3.88;;;3.10;99.90;;;;;;5036670;28;20051;-79
2024/01/22 03:32:13;;;;;;;7.53;3.95;;;3.20;99.90;;;;;;5037227;28;20056;-80
2024/01/22 03:35:01;;;;;;;6.63;3.63;;;3.30;99.90;;;;;;5045477;28;20057;-79
2024/01/22 03:37:50;;;;;;;6.25;3.45;;;3.20;99.90;;;;;;5044578;28;20067;-79
2024/01/22 03:40:38;;;;;;;4.68;3.47;;;3.20;99.90;;;;;;5045646;28;20045;-78
2024/01/22 03:43:29;;;;;;;6.13;3.35;;;3.10;99.90;;;;;;5041450;28;20060;-80
2024/01/22 03:46:19;;;;;;;7.00;3.95;;;3.20;99.90;;;;;;5043833;28;20049;-80
2024/01/22 03:49:07;;;;;;;5.18;3.40;;;3.30;99.90;;;;;;5033020;28;20382;-77
2024/01/22 03:51:54;;;;;;;7.05;3.95;;;3.50;99.90;;;;;;5053442;28;20045;-79
2024/01/22 03:54:41;;;;;;;4.78;3.33;;;3.60;99.90;;;;;;5041995;28;20055;-80
2024/01/22 03:57:29;;;;;;;5.55;3.10;;;3.90;99.90;;;;;;5059100;28;20037;-77
2024/01/22 04:00:17;;;;;;;6.05;3.00;;;4.00;99.90;;;;;;5063530;28;20049;-77
2024/01/22 04:03:08;;;;;;;4.85;3.20;;;4.00;99.90;;;;;;5055420;28;20042;-80
2024/01/22 04:05:56;;;;;;;5.63;3.00;;;4.00;99.90;;;;;;5062407;28;20096;-78
2024/01/22 04:08:55;;;;;;;5.70;3.22;;;4.00;99.90;;;;;;5050510;28;20049;-79
2024/01/22 04:11:47;;;;;;;4.70;3.30;;;4.10;99.90;;;;;;5051269;28;20093;-79
2024/01/22 04:14:35;;;;;;;7.78;3.08;;;4.10;99.90;;;;;;5049137;28;20049;-81
2024/01/22 04:17:23;;;;;;;5.07;3.05;;;4.10;99.90;;;;;;5047878;28;20649;-80
2024/01/22 04:20:13;;;;;;;4.18;3.38;;;4.10;99.90;;;;;;5047324;28;20059;-79
2024/01/22 04:23:02;;;;;;;4.45;3.10;;;4.10;99.90;;;;;;5046027;28;20561;-80
2024/01/22 04:25:50;;;;;;;8.65;3.25;;;4.20;99.90;;;;;;5045925;28;20044;-80
2024/01/22 04:28:38;;;;;;;4.68;2.90;;;4.20;99.90;;;;;;5043653;28;20064;-80
2024/01/22 04:31:31;;;;;;;6.85;3.00;;;4.10;99.90;;;;;;5038257;28;20063;-80
2024/01/22 04:34:18;;;;;;;5.72;3.20;;;4.20;99.90;;;;;;5011401;28;20041;-81
2024/01/22 04:37:06;;;;;;;4.28;2.92;;;4.30;99.90;;;;;;5056091;28;20083;-77
2024/01/22 04:39:54;;;;;;;4.25;3.30;;;4.20;99.90;;;;;;5049419;28;20068;-79
2024/01/22 04:42:42;;;;;;;3.85;2.58;;;4.20;99.90;;;;;;5040618;28;20490;-78
2024/01/22 04:45:31;;;;;;;5.38;3.75;;;4.20;99.90;;;;;;5055000;28;20790;-80
2024/01/22 04:48:18;;;;;;;6.50;3.05;;;4.20;99.90;;;;;;5044193;28;20041;-80
2024/01/22 04:51:06;;;;;;;5.50;3.65;;;4.20;99.90;;;;;;5021287;28;20037;-79
2024/01/22 04:53:55;;;;;;;5.43;3.42;;;4.20;99.90;;;;;;5037367;28;20045;-80
2024/01/22 04:56:48;;;;;;;6.35;4.07;;;4.20;99.90;;;;;;5040669;28;20045;-79
2024/01/22 04:59:35;;;;;;;5.07;3.38;;;4.20;99.90;;;;;;5040511;28;20068;-79
2024/01/22 05:02:27;;;;;;;6.25;3.75;;;4.30;99.90;;;;;;5041060;28;20049;-80
2024/01/22 05:05:17;;;;;;;5.60;4.00;;;4.20;99.90;;;;;;5046970;28;20048;-79
2024/01/22 05:08:06;;;;;;;5.97;4.43;;;4.10;99.90;;;;;;5043642;28;20096;-79
2024/01/22 05:10:53;;;;;;;4.57;3.50;;;4.10;99.90;;;;;;5049513;28;20520;-82
2024/01/22 05:13:54;;;;;;;7.57;4.38;;;4.10;99.90;;;;;;5043676;28;20042;-79
2024/01/22 05:16:41;;;;;;;5.43;3.25;;;4.10;99.90;;;;;;5022423;28;20056;-80
2024/01/22 05:19:30;;;;;;;6.07;3.85;;;4.00;99.90;;;;;;5040770;28;20053;-78
2024/01/22 05:22:19;;;;;;;8.18;4.25;;;4.00;99.90;;;;;;5041260;28;20048;-79
2024/01/22 05:25:08;;;;;;;7.30;3.78;;;4.10;99.90;;;;;;5049117;28;20386;-80
2024/01/22 05:27:59;;;;;;;6.70;3.85;;;4.10;99.90;;;;;;5054319;28;20082;-76
2024/01/22 05:30:48;;;;;;;9.05;4.28;;;4.10;99.90;;;;;;5032098;28;20041;-80
2024/01/22 05:33:37;;;;;;;5.80;3.92;;;4.10;99.90;;;;;;5056813;28;20053;-80
2024/01/22 05:36:28;;;;;;;5.65;3.85;;;4.20;99.90;;;;;;5036588;28;20037;-80
2024/01/22 05:39:15;;;;;;;5.00;3.80;;;4.10;99.90;;;;;;5049149;28;20056;-81
2024/01/22 05:42:03;;;;;;;4.93;3.53;;;4.10;99.90;;;;;;5058771;28;20042;-80
2024/01/22 05:44:52;;;;;;;4.95;3.80;;;4.10;99.90;;;;;;5049926;28;20053;-79
2024/01/22 05:47:39;;;;;;;8.23;4.57;;;4.10;99.90;;;;;;5055969;28;20040;-77
2024/01/22 05:50:30;;;;;;;7.80;3.72;;;4.10;99.90;;;;;;5054278;28;20041;-81
2024/01/22 05:53:18;;;;;;;5.65;3.65;;;4.10;99.90;;;;;;5040973;28;20748;-81
2024/01/22 05:56:08;;;;;;;7.38;3.70;;;4.10;99.90;;;;;;5035300;28;20045;-78
2024/01/22 05:58:57;;;;;;;6.00;3.83;;;4.10;99.90;;;;;;5049913;28;20076;-81
2024/01/22 06:01:45;;;;;;;5.28;4.03;;;4.10;99.90;;;;;;5046531;28;20402;-80
2024/01/22 06:04:40;;;;;;;7.18;4.22;;;4.10;99.90;;;;;;5047752;28;20041;-80
2024/01/22 06:07:33;;;;;;;5.90;3.60;;;4.10;99.90;;;;;;5036530;28;20411;-78
2024/01/22 06:10:21;;;;;;;;;;;4.10;99.90;;;;;;5046453;28;20560;-80
2024/01/22 06:13:09;;;;;;;5.55;4.25;;;4.10;99.90;;;;;;5028493;28;20293;-80
2024/01/22 06:16:01;;;;;;;9.07;4.10;;;4.20;99.90;;;;;;5035167;28;20049;-81
2024/01/22 06:18:51;;;;;;;6.53;3.92;;;4.20;99.90;;;;;;5040567;28;21024;-83
2024/01/22 06:21:38;;;;;;;6.13;3.70;;;4.20;99.90;;;;;;5052292;28;20498;-79
2024/01/22 06:24:26;;;;;;;4.45;3.72;;;4.20;99.90;;;;;;5044157;28;20048;-78
2024/01/22 06:27:13;;;;;;;6.25;3.53;;;4.30;99.90;;;;;;5048799;28;20049;-78
2024/01/22 06:30:01;;;;;;;5.28;3.45;;;4.30;99.90;;;;;;5041815;28;20210;-78
2024/01/22 06:32:50;;;;;;;6.38;3.75;;;4.30;99.90;;;;;;5045782;28;20462;-78
2024/01/22 06:35:39;;;;;;;8.50;4.18;;;4.30;99.90;;;;;;5062538;28;20037;-76
2024/01/22 06:38:27;;;;;;;5.78;3.65;;;4.30;99.90;;;;;;5057476;28;20045;-78
2024/01/22 06:41:15;;;;;;;6.25;3.78;;;4.30;99.90;;;;;;5050748;28;20041;-78
2024/01/22 06:44:06;;;;;;;5.93;3.65;;;4.30;99.90;;;;;;5025645;28;20044;-77
2024/01/22 06:46:58;;;;;;;5.90;3.90;;;4.50;99.90;;;;;;5038247;28;20037;-78
2024/01/22 06:49:49;;;;;;;5.07;3.85;;;4.60;99.90;;;;;;5040849;28;20041;-78
2024/01/22 06:52:38;;;;;;;5.10;3.67;;;4.60;99.90;;;;;;5036573;28;20566;-77
2024/01/22 06:55:26;;;;;;;5.43;3.65;;;4.60;99.90;;;;;;5034574;28;20108;-78
2024/01/22 06:58:13;;;;;;;4.15;2.90;;;4.60;99.90;;;;;;5042406;28;20190;-77
2024/01/22 07:01:01;;;;;;;5.43;3.10;;;4.80;99.90;;;;;;5049099;28;20048;-78
2024/01/22 07:03:52;;;;;;;4.25;2.90;;;5.00;99.90;;;;;;5056431;28;20029;-78
2024/01/22 07:06:48;;;;;;;3.80;2.63;;;5.20;99.90;;;;;;5046132;28;20041;-79
2024/01/22 07:09:36;;;;;;;5.18;3.22;;;5.30;99.90;;;;;;5062184;28;20041;-78
2024/01/22 07:12:28;;;;;;;6.13;2.80;;;5.40;99.90;;;;;;5041676;28;20046;-78
2024/01/22 07:15:19;;;;;;;4.88;2.47;;;5.60;99.90;;;;;;5058452;28;20116;-80
2024/01/22 07:18:09;;;;;;;4.20;2.70;;;5.50;99.90;;;;;;5028891;28;20053;-79
2024/01/22 07:20:58;;;;;;;3.58;2.50;;;5.60;99.90;;;;;;5052693;28;20157;-80
2024/01/22 07:23:46;;;;;;;4.97;2.67;;;5.70;99.90;;;;;;5046793;28;20041;-80
2024/01/22 07:26:34;;;;;;;3.00;2.50;;;5.60;99.90;;;;;;5043691;28;20128;-80
2024/01/22 07:29:25;;;;;;;6.80;2.63;;;5.60;99.90;;;;;;5041322;28;20128;-80
2024/01/22 07:32:13;;;;;;;5.22;2.92;;;5.60;99.90;;;;;;5041892;28;20501;-80
2024/01/22 07:35:10;;;;;;;3.60;2.38;;;5.60;99.90;;;;;;5043253;28;20059;-79
2024/01/22 07:38:01;;;;;;;6.25;2.50;;;5.60;99.90;;;;;;5028784;28;20075;-78
2024/01/22 07:40:50;;;;;;;3.05;2.00;;;5.70;99.90;;;;;;5037439;28;20045;-78
2024/01/22 07:43:42;;;;;;;4.28;2.22;;;5.80;99.90;;;;;;5036554;28;20053;-80
2024/01/22 07:46:30;;;;;;;3.95;2.00;;;6.00;99.90;;;;;;5051852;28;20127;-76
2024/01/22 07:49:18;;;;;;;6.03;1.95;;;6.30;99.90;;;;;;5042763;28;20126;-80
2024/01/22 07:52:06;;;;;;;4.28;1.50;;;6.70;99.90;;;;;;5045610;28;20033;-79
2024/01/22 07:54:54;;;;;;;2.08;1.42;;;7.20;99.90;;;;;;5038409;28;20048;-80
2024/01/22 07:57:42;;;;;;;1.77;1.45;;;7.40;99.90;;;;;;5043438;28;20056;-77
2024/01/22 08:00:33;;;;;;;1.58;1.35;;;7.40;99.90;;;;;;5054633;28;20469;-78
2024/01/22 08:03:22;;;;;;;3.92;1.30;;;7.40;99.90;;;;;;5041877;28;20398;-79
2024/01/22 08:06:10;;;;;;;2.85;1.52;;;7.40;99.90;;;;;;5062665;28;20096;-79
2024/01/22 08:08:59;;;;;;;1.75;1.38;;;7.50;99.90;;;;;;5036260;28;20067;-79
2024/01/22 08:11:48;;;;;;;2.38;1.48;;;7.60;99.90;;;;;;5025188;28;20056;-79
2024/01/22 08:14:36;;;;;;;2.63;1.60;;;7.50;99.90;;;;;;5039711;28;20041;-79
2024/01/22 08:17:24;;;;;;;2.17;1.38;;;7.60;99.90;;;;;;5040601;28;20045;-78
2024/01/22 08:20:12;;;;;;;1.88;1.58;;;7.60;99.90;;;;;;5038634;28;20395;-78
2024/01/22 08:22:59;;;;;;;2.05;1.70;;;7.50;99.90;;;;;;5041284;28;20056;-80
2024/01/22 08:25:50;;;;;;;6.97;1.50;;;7.50;99.90;;;;;;5034600;28;20029;-79
2024/01/22 08:28:38;;;;;;;1.65;1.30;;;7.40;99.90;;;;;;5043871;28;20040;-78
2024/01/22 08:31:25;;;;;;;1.77;1.33;;;7.40;99.90;;;;;;5039966;28;20049;-80
2024/01/22 08:34:13;;;;;;;3.03;1.80;;;7.40;99.90;;;;;;5038419;28;20688;-80
2024/01/22 08:37:01;;;;;;;2.72;1.45;;;7.40;99.90;;;;;;5048186;28;20063;-78
2024/01/22 08:39:50;;;;;;;1.73;1.50;;;7.30;99.90;;;;;;5039103;28;20045;-79
2024/01/22 08:42:37;;;;;;;1.83;1.58;;;7.30;99.90;;;;;;5040069;28;20094;-80
2024/01/22 08:45:25;;;;;;;2.45;1.60;;;7.30;99.90;;;;;;5035290;28;20124;-80
2024/01/22 08:48:13;;;;;;;1.85;1.30;;;7.40;99.90;;;;;;5058921;28;20151;-77
2024/01/22 08:51:04;;;;;;;1.63;1.20;;;7.50;99.90;;;;;;5035567;28;20616;-79
2024/01/22 08:53:57;;;;;;;2.85;1.77;;;7.50;99.90;;;;;;5060985;28;20101;-77
2024/01/22 08:56:48;;;;;;;3.50;1.70;;;7.50;99.90;;;;;;5057707;28;20068;-78
2024/01/22 08:59:38;;;;;;;3.10;1.67;;;7.50;99.90;;;;;;5050221;28;20049;-78
2024/01/22 09:02:26;;;;;;;2.63;1.27;;;7.60;99.90;;;;;;5059181;28;20024;-77
2024/01/22 09:05:14;;;;;;;1.10;1.00;;;7.70;99.90;;;;;;5046001;28;20108;-79
2024/01/22 09:08:02;;;;;;;2.45;1.25;;;8.00;99.90;;;;;;5044731;28;20068;-79
2024/01/22 09:10:50;;;;;;;1.63;1.00;;;8.30;99.90;;;;;;5040526;28;20042;-79
2024/01/22 09:13:38;;;;;;;2.08;1.35;;;8.70;99.90;;;;;;5043940;28;20052;-80
2024/01/22 09:16:33;;;;;;;3.50;1.40;;;8.80;99.90;;;;;;5054778;28;20025;-78
2024/01/22 09:19:21;;;;;;;1.60;0.95;;;9.00;99.90;;;;;;5058111;28;20072;-79
2024/01/22 09:22:08;;;;;;;1.45;0.90;;;9.30;99.90;;;;;;5065802;28;20037;-75
2024/01/22 09:24:56;;;;;;;2.17;1.05;;;9.50;99.90;;;;;;5047126;28;20029;-79
2024/01/22 09:27:44;;;;;;;1.73;1.00;;;9.50;99.90;;;;;;5039545;28;20047;-77
2024/01/22 09:30:31;;;;;;;1.30;1.17;;;9.60;99.90;;;;;;5041627;28;20469;-78
2024/01/22 09:33:19;;;;;;;1.60;0.90;;;9.90;99.90;;;;;;5031495;28;20041;-78
2024/01/22 09:36:07;;;;;;;0.80;0.80;;;10.10;99.90;;;;;;5041987;28;20045;-78
2024/01/22 09:38:54;;;;;;;1.10;1.00;;;10.10;99.90;;;;;;5040323;28;20738;-79
2024/01/22 09:41:42;;;;;;;1.25;0.90;;;10.20;99.90;;;;;;5040037;28;20033;-79
2024/01/22 09:44:31;;;;;;;1.30;1.02;;;10.20;99.90;;;;;;5042954;28;20425;-79
2024/01/22 09:47:20;;;;;;;1.73;0.93;;;10.00;99.90;;;;;;5038815;28;20054;-80
2024/01/22 09:50:08;;;;;;;2.45;1.17;;;10.00;99.90;;;;;;5040922;28;20131;-81
2024/01/22 09:53:09;;;;;;;1.65;1.05;;;10.10;99.90;;;;;;5040614;28;20056;-81
2024/01/22 09:55:57;;;;;;;1.02;1.00;;;10.00;99.90;;;;;;5036733;28;20673;-81
2024/01/22 09:58:46;;;;;;;1.15;0.93;;;9.60;99.90;;;;;;5038443;28;20128;-80
2024/01/22 10:01:33;;;;;;;3.30;1.10;;;9.30;99.90;;;;;;5040009;28;20186;-79
2024/01/22 10:04:25;;;;;;;1.55;1.20;;;9.20;99.90;;;;;;5033812;28;20446;-81
2024/01/22 10:07:16;;;;;;;1.48;1.23;;;9.20;99.90;;;;;;5034004;28;20049;-78
2024/01/22 10:10:05;;;;;;;2.05;1.42;;;9.40;99.90;;;;;;5043854;28;20045;-79
2024/01/22 10:13:07;;;;;;;1.40;1.23;;;9.60;99.90;;;;;;5037215;28;20110;-81
2024/01/22 10:16:08;;;;;;;1.08;1.08;;;9.70;99.90;;;;;;5042390;28;20045;-79
2024/01/22 10:19:00;;;;;;;1.08;0.98;;;9.60;99.90;;;;;;5038987;28;20073;-79
2024/01/22 10:22:01;;;;;;;1.20;1.10;;;9.60;99.90;;;;;;5050718;28;20040;-76
2024/01/22 10:25:02;;;;;;;1.40;1.30;;;9.70;99.90;;;;;;5048710;28;20042;-82
2024/01/22 10:28:06;;;;;;;1.25;1.15;;;9.70;99.90;;;;;;5035331;28;20064;-80
2024/01/22 10:31:04;;;;;;;1.45;1.20;;;9.60;99.90;;;;;;5027694;28;20053;-81
2024/01/22 10:34:04;;;;;;;1.30;1.02;;;9.60;99.90;;;;;;5023230;28;20195;-80
2024/01/22 10:37:12;;;;;;;1.80;1.30;;;9.50;99.90;;;;;;5040048;28;20045;-80
2024/01/22 10:40:02;;;;;;;2.65;1.20;;;9.40;99.90;;;;;;5041980;28;20053;-78
2024/01/22 10:42:51;;;;;;;2.05;1.35;;;9.30;99.90;;;;;;5051402;28;20041;-76
2024/01/22 10:45:40;;;;;;;2.53;1.50;;;9.30;99.90;;;;;;5048884;28;20422;-78
2024/01/22 10:48:28;;;;;;;1.58;1.20;;;9.30;99.90;;;;;;5045560;28;20041;-80
2024/01/22 10:51:34;;;;;;;2.25;1.92;;;9.40;99.90;;;;;;5037054;28;20171;-80
2024/01/22 10:54:24;;;;;;;2.05;1.17;;;9.40;99.90;;;;;;5041824;28;20609;-79
2024/01/22 10:57:24;;;;;;;1.05;1.00;;;9.30;1.00;;;;;;5055116;28;20052;-78
2024/01/22 11:00:18;;;;;;;1.20;1.10;;;9.40;1.00;;;;;;5049790;28;20103;-80
2024/01/22 11:03:12;;;;;;;1.83;1.10;;;9.40;99.90;;;;;;5052177;28;20048;-79
2024/01/22 11:06:05;;;;;;;3.30;1.10;;;9.50;99.90;;;;;;5044107;28;20048;-79
2024/01/22 11:08:59;;;;;;;1.77;1.33;;;9.50;99.90;;;;;;5044189;28;20537;-79
2024/01/22 11:11:50;;;;;;;2.35;1.10;;;9.60;99.90;;;;;;5043776;28;20100;-78
2024/01/22 11:14:39;;;;;;;1.25;1.10;;;9.60;99.90;;;;;;5038391;28;20033;-78
2024/01/22 11:17:27;;;;;;;2.15;1.10;;;9.70;1.00;;;;;;5051135;28;20052;-78
2024/01/22 11:20:21;;;;;;;2.75;1.45;;;9.60;1.00;;;;;;5047249;28;20081;-81
2024/01/22 11:23:15;;;;;;;2.55;1.33;;;9.50;1.00;;;;;;5056736;28;20060;-77
2024/01/22 11:26:10;;;;;;;1.38;1.27;;;9.40;1.00;;;;;;5039450;28;20050;-79
2024/01/22 11:29:16;;;;;;;2.08;1.40;;;9.40;1.00;;;;;;5043676;28;20751;-80
2024/01/22 11:32:27;;;;;;;3.80;1.20;;;9.50;1.00;;;;;;5044790;28;20045;-80
2024/01/22 11:35:44;;;;;;;2.80;1.30;;;9.30;99.90;;;;;;5047046;28;20048;-80
2024/01/22 11:38:42;;;;;;;1.55;1.27;;;9.00;1.00;;;;;;5040021;28;20057;-78
2024/01/22 11:41:34;;;;;;;3.13;1.30;;;8.90;99.90;;;;;;5045616;28;20494;-80
2024/01/22 11:44:26;;;;;;;1.40;1.20;;;9.00;99.90;;;;;;5033221;28;20091;-81
2024/01/22 11:47:14;;;;;;;3.80;1.55;;;9.10;1.00;;;;;;5038578;28;20049;-79
2024/01/22 11:50:05;;;;;;;1.50;1.08;;;9.20;99.90;;;;;;5045545;28;20046;-81
2024/01/22 11:52:59;;;;;;;2.47;1.60;;;9.30;99.90;;;;;;5039837;28;20118;-81
2024/01/22 11:56:03;;;;;;;1.45;1.00;;;9.30;99.90;;;;;;5043118;28;20583;-81
2024/01/22 11:58:59;;;;;;;2.97;1.65;;;9.50;63.30;;;;;;5044622;28;20049;-78
2024/01/22 12:02:10;;;;;;;1.70;1.42;;;9.70;1.00;;;;;;5046822;28;20195;-81
2024/01/22 12:05:27;;;;;;;1.65;1.30;;;9.90;99.90;;;;;;5043664;28;20053;-77
2024/01/22 12:08:14;;;;;;;1.00;0.85;;;10.00;99.90;;;;;;5055838;28;20068;-79
2024/01/22 12:11:11;;;;;;;1.75;0.95;;;10.10;10.50;;;;;;5047618;28;20045;-82
2024/01/22 12:13:58;;;;;;;0.82;0.80;;;10.10;2.80;;;;;;5039902;28;20449;-82
2024/01/22 12:16:47;;;;;;;1.52;0.90;;;10.10;1.00;;;;;;5042261;28;20091;-79
2024/01/22 12:19:35;;;;;;;1.48;0.95;;;10.10;10.50;;;;;;5037687;28;20049;-79
2024/01/22 12:22:24;;;;;;;0.95;0.82;;;10.10;14.40;;;;;;5043894;28;20112;-80
2024/01/22 12:25:14;;;;;;;0.80;0.80;;;10.10;44.30;;;;;;5041535;28;20060;-81
2024/01/22 12:28:12;;;;;;;0.90;0.90;;;10.00;99.90;;;;;;5048195;28;20102;-78
2024/01/22 12:31:04;;;;;;;2.08;1.27;;;10.00;99.90;;;;;;5044504;28;20155;-79
2024/01/22 12:34:11;;;;;;;2.03;1.02;;;10.00;99.90;;;;;;5041287;28;20069;-79
2024/01/22 12:37:20;;;;;;;4.03;0.90;;;10.00;99.90;;;;;;5037455;28;20049;-79
2024/01/22 12:40:16;;;;;;;1.52;1.00;;;10.00;99.90;;;;;;5039138;28;20044;-80
2024/01/22 12:43:07;;;;;;;2.33;1.00;;;10.00;99.90;;;;;;5039909;28;20060;-81
2024/01/22 12:46:13;;;;;;;1.48;0.93;;;10.10;99.90;;;;;;5044848;28;20563;-79
2024/01/22 12:49:00;;;;;;;1.65;1.27;;;10.20;99.90;;;;;;5059153;28;20033;-77
2024/01/22 12:51:50;;;;;;;0.80;0.80;;;10.20;99.90;;;;;;5030261;28;20033;-81
2024/01/22 12:54:37;;;;;;;1.35;1.00;;;10.20;99.90;;;;;;5042499;28;20065;-79
2024/01/22 12:57:25;;;;;;;0.70;0.70;;;10.20;99.90;;;;;;5048890;28;20094;-78
2024/01/22 13:00:15;;;;;;;0.70;0.70;;;10.10;99.90;;;;;;5021637;28;20045;-81
2024/01/22 13:03:03;;;;;;;1.23;0.95;;;9.90;1.00;;;;;;5031448;28;20441;-79
2024/01/22 13:05:59;;;;;;;2.35;0.75;;;9.80;99.90;;;;;;5036691;28;20034;-81
2024/01/22 13:08:47;;;;;;;0.70;0.70;;;9.80;99.90;;;;;;5025436;28;20458;-78
2024/01/22 13:11:34;;;;;;;0.65;0.65;;;9.80;1.00;;;;;;5043875;28;20045;-78
2024/01/22 13:14:21;;;;;;;0.80;0.80;;;9.70;99.90;;;;;;5039702;28;20144;-80
2024/01/22 13:17:12;;;;;;;0.75;0.75;;;9.90;99.90;;;;;;5039491;28;20046;-79
2024/01/22 13:20:02;;;;;;;1.83;0.82;;;10.00;99.90;;;;;;5035337;28;20070;-78
2024/01/22 13:22:52;;;;;;;0.60;0.60;;;10.20;99.90;;;;;;5039788;28;20486;-80
2024/01/22 13:25:39;;;;;;;1.00;0.95;;;10.20;99.90;;;;;;5036018;28;20045;-79
2024/01/22 13:28:33;;;;;;;0.88;0.88;;;10.10;1.00;;;;;;5036261;28;20052;-80
2024/01/22 13:31:21;;;;;;;0.77;0.77;;;10.10;1.00;;;;;;5024167;28;20041;-78
2024/01/22 13:34:09;;;;;;;1.70;0.82;;;10.00;1.00;;;;;;5023948;28;20056;-80
2024/01/22 13:36:57;;;;;;;1.75;0.80;;;10.00;1.00;;;;;;5040509;28;20049;-79
2024/01/22 13:39:47;;;;;;;0.60;0.60;;;10.00;1.00;;;;;;5044401;28;20041;-78
2024/01/22 13:42:35;;;;;;;0.70;0.70;;;10.00;99.90;;;;;;5047232;28;20114;-79
2024/01/22 13:45:26;;;;;;;2.08;0.70;;;10.00;99.90;;;;;;5052187;28;20037;-80
2024/01/22 13:48:16;;;;;;;1.25;0.70;;;10.00;99.90;;;;;;5039630;28;20056;-79
2024/01/22 13:51:04;;;;;;;0.70;0.70;;;9.90;99.90;;;;;;5036115;28;20045;-79
2024/01/22 13:53:51;;;;;;;0.80;0.80;;;9.90;99.90;;;;;;5042602;28;20046;-78
2024/01/22 13:56:42;;;;;;;0.75;0.75;;;9.90;99.90;;;;;;5038906;28;20041;-80
2024/01/22 13:59:30;;;;;;;0.77;0.77;;;9.80;99.90;;;;;;5036085;28;20072;-79
2024/01/22 14:02:21;;;;;;;2.42;0.77;;;9.80;99.90;;;;;;5044584;28;20053;-80
2024/01/22 14:05:10;;;;;;;2.45;0.90;;;9.80;99.90;;;;;;5035780;28;20041;-78
2024/01/22 14:07:59;;;;;;;2.97;0.85;;;9.80;99.90;;;;;;5052730;28;20049;-78
2024/01/22 14:10:55;;;;;;;0.85;0.80;;;9.80;99.90;;;;;;5044664;28;20037;-80
2024/01/22 14:13:45;;;;;;;2.08;0.80;;;9.70;99.90;;;;;;5054873;28;20115;-77
2024/01/22 14:16:34;;;;;;;1.15;0.80;;;9.70;99.90;;;;;;5062382;28;20092;-78
2024/01/22 14:19:23;;;;;;;0.73;0.60;;;9.60;99.90;;;;;;5056144;28;20044;-81
2024/01/22 14:22:11;;;;;;;0.70;0.70;;;9.60;99.90;;;;;;5034449;28;20048;-81
2024/01/22 14:25:01;;;;;;;1.73;0.90;;;9.60;99.90;;;;;;5047316;28;20048;-81
2024/01/22 14:27:55;;;;;;;0.82;0.80;;;9.50;99.90;;;;;;5047978;28;20570;-81
2024/01/22 14:30:45;;;;;;;1.10;0.70;;;9.50;1.00;;;;;;5072734;28;20033;-82
2024/01/22 14:33:33;;;;;;;1.17;0.73;;;9.40;99.90;;;;;;5066306;28;20299;-78
2024/01/22 14:36:27;;;;;;;1.05;0.80;;;9.40;99.90;;;;;;5051471;28;20068;-78
2024/01/22 14:39:20;;;;;;;0.70;0.70;;;9.40;1.00;;;;;;5061860;28;20037;-75
2024/01/22 14:42:07;;;;;;;1.17;0.93;;;9.40;1.00;;;;;;5065558;28;20548;-81
2024/01/22 14:44:57;;;;;;;4.68;1.20;;;9.40;99.90;;;;;;5057447;28;20147;-79
2024/01/22 14:47:45;;;;;;;0.60;0.60;;;9.40;1.00;;;;;;5048179;28;20049;-81
2024/01/22 14:50:40;;;;;;;0.98;0.75;;;9.30;49.50;;;;;;5039198;28;20040;-82
2024/01/22 14:53:30;;;;;;;3.15;1.00;;;9.20;1.00;;;;;;5036314;28;20132;-82
2024/01/22 14:56:17;;;;;;;1.10;1.00;;;9.20;99.90;;;;;;5041225;28;20060;-82
2024/01/22 14:59:05;;;;;;;3.60;1.23;;;9.20;99.90;;;;;;5043600;28;20117;-80